sensor_id;sensor_type;location;lat;lon;timestamp;temperature;humidity
12700;DHT22;6414;49.570;6.060;2022-09-09T00:04:22;15.00;99.90
12700;DHT22;6414;49.570;6.060;2022-09-09T00:19:07;14.90;99.90
12700;DHT22;6414;49.570;6.060;2022-09-09T00:21:53;14.90;99.90
12700;DHT22;6414;49.570;6.060;2022-09-09T00:24:49;14.90;99.90
12700;DHT22;6414;49.570;6.060;2022-09-09T00:27:46;15.00;99.90
12700;DHT22;6414;49.570;6.060;2022-09-09T00:30:32;15.00;99.90
12700;DHT22;6414;49.570;6.060;2022-09-09T00:33:17;15.00;99.90
12700;DHT22;6414;49.570;6.060;2022-09-09T00:36:02;15.00;99.90
12700;DHT22;6414;49.570;6.060;2022-09-09T00:38:57;15.00;99.90
12700;DHT22;6414;49.570;6.060;2022-09-09T00:44:33;15.00;99.90
12700;DHT22;6414;49.570;6.060;2022-09-09T00:47:40;14.90;99.90
12700;DHT22;6414;49.570;6.060;2022-09-09T00:51:02;14.90;99.90
12700;DHT22;6414;49.570;6.060;2022-09-09T00:53:39;14.90;99.90
12700;DHT22;6414;49.570;6.060;2022-09-09T00:56:22;14.80;99.90
12700;DHT22;6414;49.570;6.060;2022-09-09T01:01:55;14.80;99.90
12700;DHT22;6414;49.570;6.060;2022-09-09T01:04:40;14.80;99.90
12700;DHT22;6414;49.570;6.060;2022-09-09T01:07:26;14.80;99.90
12700;DHT22;6414;49.570;6.060;2022-09-09T01:10:15;14.70;99.90
12700;DHT22;6414;49.570;6.060;2022-09-09T01:12:56;14.80;99.90
12700;DHT22;6414;49.570;6.060;2022-09-09T01:15:42;14.80;99.90
12700;DHT22;6414;49.570;6.060;2022-09-09T01:18:31;14.80;99.90
12700;DHT22;6414;49.570;6.060;2022-09-09T01:21:28;14.80;99.90
12700;DHT22;6414;49.570;6.060;2022-09-09T01:24:19;14.80;99.90
12700;DHT22;6414;49.570;6.060;2022-09-09T01:27:03;14.90;99.90
12700;DHT22;6414;49.570;6.060;2022-09-09T01:29:52;14.80;99.90
12700;DHT22;6414;49.570;6.060;2022-09-09T01:35:40;14.80;99.90
12700;DHT22;6414;49.570;6.060;2022-09-09T01:38:20;14.80;99.90
12700;DHT22;6414;49.570;6.060;2022-09-09T01:41:05;14.80;99.90
12700;DHT22;6414;49.570;6.060;2022-09-09T01:43:50;14.70;99.90
12700;DHT22;6414;49.570;6.060;2022-09-09T01:46:36;14.70;99.90
12700;DHT22;6414;49.570;6.060;2022-09-09T01:49:21;14.70;99.90
12700;DHT22;6414;49.570;6.060;2022-09-09T01:52:06;14.70;99.90
12700;DHT22;6414;49.570;6.060;2022-09-09T01:54:51;14.70;99.90
12700;DHT22;6414;49.570;6.060;2022-09-09T01:57:50;14.60;99.90
12700;DHT22;6414;49.570;6.060;2022-09-09T02:00:33;14.60;99.90
12700;DHT22;6414;49.570;6.060;2022-09-09T02:03:29;14.60;99.90
12700;DHT22;6414;49.570;6.060;2022-09-09T02:06:28;14.70;99.90
12700;DHT22;6414;49.570;6.060;2022-09-09T02:09:12;14.70;99.90
12700;DHT22;6414;49.570;6.060;2022-09-09T02:12:01;14.80;99.90
12700;DHT22;6414;49.570;6.060;2022-09-09T02:14:46;14.80;99.90
12700;DHT22;6414;49.570;6.060;2022-09-09T02:17:32;14.80;99.90
12700;DHT22;6414;49.570;6.060;2022-09-09T02:20:16;14.70;99.90
12700;DHT22;6414;49.570;6.060;2022-09-09T02:23:02;14.70;99.90
12700;DHT22;6414;49.570;6.060;2022-09-09T02:25:47;14.70;99.90
12700;DHT22;6414;49.570;6.060;2022-09-09T02:28:32;14.80;99.90
12700;DHT22;6414;49.570;6.060;2022-09-09T02:31:18;14.70;99.90
12700;DHT22;6414;49.570;6.060;2022-09-09T02:34:03;14.70;99.90
12700;DHT22;6414;49.570;6.060;2022-09-09T02:36:49;14.70;99.90
12700;DHT22;6414;49.570;6.060;2022-09-09T02:39:34;14.60;99.90
12700;DHT22;6414;49.570;6.060;2022-09-09T02:42:19;14.70;99.90
12700;DHT22;6414;49.570;6.060;2022-09-09T02:45:06;14.60;99.90
12700;DHT22;6414;49.570;6.060;2022-09-09T02:47:55;14.60;99.90
12700;DHT22;6414;49.570;6.060;2022-09-09T02:53:46;14.60;99.90
12700;DHT22;6414;49.570;6.060;2022-09-09T02:56:29;14.60;99.90
12700;DHT22;6414;49.570;6.060;2022-09-09T02:59:14;14.60;99.90
12700;DHT22;6414;49.570;6.060;2022-09-09T03:01:59;14.60;99.90
12700;DHT22;6414;49.570;6.060;2022-09-09T03:04:44;14.60;99.90
12700;DHT22;6414;49.570;6.060;2022-09-09T03:07:30;14.60;99.90
12700;DHT22;6414;49.570;6.060;2022-09-09T03:10:15;14.60;99.90
12700;DHT22;6414;49.570;6.060;2022-09-09T03:13:00;14.50;99.90
12700;DHT22;6414;49.570;6.060;2022-09-09T03:15:47;14.60;99.90
12700;DHT22;6414;49.570;6.060;2022-09-09T03:18:32;14.60;99.90
12700;DHT22;6414;49.570;6.060;2022-09-09T03:21:17;14.60;99.90
12700;DHT22;6414;49.570;6.060;2022-09-09T03:24:03;14.60;99.90
12700;DHT22;6414;49.570;6.060;2022-09-09T03:26:48;14.60;99.90
12700;DHT22;6414;49.570;6.060;2022-09-09T03:29:34;14.60;99.90
12700;DHT22;6414;49.570;6.060;2022-09-09T03:32:19;14.60;99.90
12700;DHT22;6414;49.570;6.060;2022-09-09T03:35:04;14.70;99.90
12700;DHT22;6414;49.570;6.060;2022-09-09T03:37:49;14.60;99.90
12700;DHT22;6414;49.570;6.060;2022-09-09T03:40:35;14.70;99.90
12700;DHT22;6414;49.570;6.060;2022-09-09T03:43:20;14.60;99.90
12700;DHT22;6414;49.570;6.060;2022-09-09T03:46:05;14.50;99.90
12700;DHT22;6414;49.570;6.060;2022-09-09T03:48:52;14.50;99.90
12700;DHT22;6414;49.570;6.060;2022-09-09T03:51:37;14.50;99.90
12700;DHT22;6414;49.570;6.060;2022-09-09T03:54:23;14.50;99.90
12700;DHT22;6414;49.570;6.060;2022-09-09T03:57:08;14.60;99.90
12700;DHT22;6414;49.570;6.060;2022-09-09T03:59:53;14.60;99.90
12700;DHT22;6414;49.570;6.060;2022-09-09T04:02:38;14.60;99.90
12700;DHT22;6414;49.570;6.060;2022-09-09T04:05:23;14.60;99.90
12700;DHT22;6414;49.570;6.060;2022-09-09T04:08:09;14.50;99.90
12700;DHT22;6414;49.570;6.060;2022-09-09T04:10:54;14.50;99.90
12700;DHT22;6414;49.570;6.060;2022-09-09T04:13:40;14.50;99.90
12700;DHT22;6414;49.570;6.060;2022-09-09T04:16:25;14.50;99.90
12700;DHT22;6414;49.570;6.060;2022-09-09T04:19:11;14.50;99.90
12700;DHT22;6414;49.570;6.060;2022-09-09T04:21:56;14.60;99.90
12700;DHT22;6414;49.570;6.060;2022-09-09T04:24:41;14.50;99.90
12700;DHT22;6414;49.570;6.060;2022-09-09T04:27:26;14.60;99.90
12700;DHT22;6414;49.570;6.060;2022-09-09T04:30:13;14.60;99.90
12700;DHT22;6414;49.570;6.060;2022-09-09T04:32:58;14.60;99.90
12700;DHT22;6414;49.570;6.060;2022-09-09T04:35:47;14.60;99.90
12700;DHT22;6414;49.570;6.060;2022-09-09T04:38:32;14.60;99.90
12700;DHT22;6414;49.570;6.060;2022-09-09T04:41:17;14.60;99.90
12700;DHT22;6414;49.570;6.060;2022-09-09T04:44:03;14.60;99.90
12700;DHT22;6414;49.570;6.060;2022-09-09T04:46:48;14.60;99.90
12700;DHT22;6414;49.570;6.060;2022-09-09T04:49:34;14.60;99.90
12700;DHT22;6414;49.570;6.060;2022-09-09T04:52:20;14.60;99.90
12700;DHT22;6414;49.570;6.060;2022-09-09T04:55:05;14.60;99.90
12700;DHT22;6414;49.570;6.060;2022-09-09T04:57:50;14.60;99.90
12700;DHT22;6414;49.570;6.060;2022-09-09T05:00:35;14.60;99.90
12700;DHT22;6414;49.570;6.060;2022-09-09T05:03:21;14.50;99.90
12700;DHT22;6414;49.570;6.060;2022-09-09T05:06:07;14.50;99.90
12700;DHT22;6414;49.570;6.060;2022-09-09T05:08:52;14.50;99.90
12700;DHT22;6414;49.570;6.060;2022-09-09T05:11:37;14.50;99.90
12700;DHT22;6414;49.570;6.060;2022-09-09T05:14:22;14.60;99.90
12700;DHT22;6414;49.570;6.060;2022-09-09T05:17:08;14.60;99.90
12700;DHT22;6414;49.570;6.060;2022-09-09T05:19:53;14.60;99.90
12700;DHT22;6414;49.570;6.060;2022-09-09T05:22:39;14.60;99.90
12700;DHT22;6414;49.570;6.060;2022-09-09T05:25:24;14.60;99.90
12700;DHT22;6414;49.570;6.060;2022-09-09T05:28:12;14.50;99.90
12700;DHT22;6414;49.570;6.060;2022-09-09T05:31:04;14.50;99.90
12700;DHT22;6414;49.570;6.060;2022-09-09T05:33:46;14.40;99.90
12700;DHT22;6414;49.570;6.060;2022-09-09T05:36:31;14.50;99.90
12700;DHT22;6414;49.570;6.060;2022-09-09T05:39:16;14.50;99.90
12700;DHT22;6414;49.570;6.060;2022-09-09T05:42:01;14.50;99.90
12700;DHT22;6414;49.570;6.060;2022-09-09T05:44:47;14.50;99.90
12700;DHT22;6414;49.570;6.060;2022-09-09T05:47:33;14.50;99.90
12700;DHT22;6414;49.570;6.060;2022-09-09T05:50:18;14.60;99.90
12700;DHT22;6414;49.570;6.060;2022-09-09T05:53:04;14.50;99.90
12700;DHT22;6414;49.570;6.060;2022-09-09T05:55:49;14.50;99.90
12700;DHT22;6414;49.570;6.060;2022-09-09T05:58:38;14.50;99.90
12700;DHT22;6414;49.570;6.060;2022-09-09T06:01:24;14.60;99.90
12700;DHT22;6414;49.570;6.060;2022-09-09T06:04:08;14.60;99.90
12700;DHT22;6414;49.570;6.060;2022-09-09T06:06:54;14.60;99.90
12700;DHT22;6414;49.570;6.060;2022-09-09T06:09:40;14.60;99.90
12700;DHT22;6414;49.570;6.060;2022-09-09T06:12:25;14.60;99.90
12700;DHT22;6414;49.570;6.060;2022-09-09T06:15:10;14.60;99.90
12700;DHT22;6414;49.570;6.060;2022-09-09T06:17:56;14.70;99.90
12700;DHT22;6414;49.570;6.060;2022-09-09T06:20:41;14.80;99.90
12700;DHT22;6414;49.570;6.060;2022-09-09T06:23:27;14.80;99.90
12700;DHT22;6414;49.570;6.060;2022-09-09T06:26:16;14.70;99.90
12700;DHT22;6414;49.570;6.060;2022-09-09T06:29:00;14.80;99.90
12700;DHT22;6414;49.570;6.060;2022-09-09T06:31:46;14.80;99.90
12700;DHT22;6414;49.570;6.060;2022-09-09T06:34:31;14.80;99.90
12700;DHT22;6414;49.570;6.060;2022-09-09T06:37:23;14.80;99.90
12700;DHT22;6414;49.570;6.060;2022-09-09T06:40:08;14.80;99.90
12700;DHT22;6414;49.570;6.060;2022-09-09T06:42:53;14.80;99.90
12700;DHT22;6414;49.570;6.060;2022-09-09T06:45:39;14.90;99.90
12700;DHT22;6414;49.570;6.060;2022-09-09T06:48:25;14.90;99.90
12700;DHT22;6414;49.570;6.060;2022-09-09T06:51:17;15.10;99.90
12700;DHT22;6414;49.570;6.060;2022-09-09T06:54:03;15.20;99.90
12700;DHT22;6414;49.570;6.060;2022-09-09T06:56:47;15.30;99.90
12700;DHT22;6414;49.570;6.060;2022-09-09T06:59:33;15.20;99.90
12700;DHT22;6414;49.570;6.060;2022-09-09T07:02:18;15.30;99.90
12700;DHT22;6414;49.570;6.060;2022-09-09T07:05:03;15.30;99.90
12700;DHT22;6414;49.570;6.060;2022-09-09T07:07:52;15.30;99.90
12700;DHT22;6414;49.570;6.060;2022-09-09T07:10:37;15.20;99.90
12700;DHT22;6414;49.570;6.060;2022-09-09T07:13:25;15.20;99.90
12700;DHT22;6414;49.570;6.060;2022-09-09T07:16:12;15.40;99.90
12700;DHT22;6414;49.570;6.060;2022-09-09T07:18:57;15.60;99.90
12700;DHT22;6414;49.570;6.060;2022-09-09T07:21:45;15.70;99.90
12700;DHT22;6414;49.570;6.060;2022-09-09T07:24:31;15.70;99.90
12700;DHT22;6414;49.570;6.060;2022-09-09T07:27:17;15.70;99.90
12700;DHT22;6414;49.570;6.060;2022-09-09T07:30:03;15.80;99.90
12700;DHT22;6414;49.570;6.060;2022-09-09T07:32:50;15.80;99.90
12700;DHT22;6414;49.570;6.060;2022-09-09T07:35:34;15.70;99.90
12700;DHT22;6414;49.570;6.060;2022-09-09T07:38:19;15.90;99.90
12700;DHT22;6414;49.570;6.060;2022-09-09T07:41:08;15.60;99.90
12700;DHT22;6414;49.570;6.060;2022-09-09T07:43:54;15.60;99.90
12700;DHT22;6414;49.570;6.060;2022-09-09T07:46:39;15.60;99.90
12700;DHT22;6414;49.570;6.060;2022-09-09T07:49:25;15.60;99.90
12700;DHT22;6414;49.570;6.060;2022-09-09T07:52:10;15.60;99.90
12700;DHT22;6414;49.570;6.060;2022-09-09T07:54:55;15.90;99.90
12700;DHT22;6414;49.570;6.060;2022-09-09T07:57:42;16.00;99.90
12700;DHT22;6414;49.570;6.060;2022-09-09T08:00:27;16.00;99.90
12700;DHT22;6414;49.570;6.060;2022-09-09T08:03:15;15.90;99.90
12700;DHT22;6414;49.570;6.060;2022-09-09T08:06:02;15.90;99.90
12700;DHT22;6414;49.570;6.060;2022-09-09T08:08:49;15.90;99.90
12700;DHT22;6414;49.570;6.060;2022-09-09T08:11:32;15.80;99.90
12700;DHT22;6414;49.570;6.060;2022-09-09T08:14:18;15.70;99.90
12700;DHT22;6414;49.570;6.060;2022-09-09T08:17:04;15.90;99.90
12700;DHT22;6414;49.570;6.060;2022-09-09T08:19:50;15.80;99.90
12700;DHT22;6414;49.570;6.060;2022-09-09T08:22:36;15.90;99.90
12700;DHT22;6414;49.570;6.060;2022-09-09T08:25:22;15.90;99.90
12700;DHT22;6414;49.570;6.060;2022-09-09T08:28:07;15.90;99.90
12700;DHT22;6414;49.570;6.060;2022-09-09T08:30:52;15.90;99.90
12700;DHT22;6414;49.570;6.060;2022-09-09T08:33:38;15.70;99.90
12700;DHT22;6414;49.570;6.060;2022-09-09T08:36:24;15.70;99.90
12700;DHT22;6414;49.570;6.060;2022-09-09T08:39:10;15.50;99.90
12700;DHT22;6414;49.570;6.060;2022-09-09T08:48:17;15.90;99.90
12700;DHT22;6414;49.570;6.060;2022-09-09T08:50:59;15.90;99.90
12700;DHT22;6414;49.570;6.060;2022-09-09T08:53:46;15.90;99.90
12700;DHT22;6414;49.570;6.060;2022-09-09T08:56:31;16.10;99.90
12700;DHT22;6414;49.570;6.060;2022-09-09T08:59:16;16.20;99.90
12700;DHT22;6414;49.570;6.060;2022-09-09T09:02:04;16.30;99.90
12700;DHT22;6414;49.570;6.060;2022-09-09T09:04:52;16.30;99.90
12700;DHT22;6414;49.570;6.060;2022-09-09T09:07:40;16.50;99.90
12700;DHT22;6414;49.570;6.060;2022-09-09T09:13:14;16.50;99.90
12700;DHT22;6414;49.570;6.060;2022-09-09T09:16:00;16.50;99.90
12700;DHT22;6414;49.570;6.060;2022-09-09T09:18:44;16.70;99.90
12700;DHT22;6414;49.570;6.060;2022-09-09T09:21:34;16.60;99.90
12700;DHT22;6414;49.570;6.060;2022-09-09T09:25:08;16.80;99.90
12700;DHT22;6414;49.570;6.060;2022-09-09T09:27:18;17.20;99.90
12700;DHT22;6414;49.570;6.060;2022-09-09T09:30:22;17.70;99.90
12700;DHT22;6414;49.570;6.060;2022-09-09T09:33:21;17.40;99.90
12700;DHT22;6414;49.570;6.060;2022-09-09T09:36:04;17.30;99.90
12700;DHT22;6414;49.570;6.060;2022-09-09T09:38:57;17.40;99.90
12700;DHT22;6414;49.570;6.060;2022-09-09T09:41:41;17.40;99.90
12700;DHT22;6414;49.570;6.060;2022-09-09T09:44:30;17.50;99.90
12700;DHT22;6414;49.570;6.060;2022-09-09T09:47:16;17.40;99.90
12700;DHT22;6414;49.570;6.060;2022-09-09T09:50:01;17.40;99.90
12700;DHT22;6414;49.570;6.060;2022-09-09T09:52:56;17.80;99.90
12700;DHT22;6414;49.570;6.060;2022-09-09T09:55:44;17.50;99.90
12700;DHT22;6414;49.570;6.060;2022-09-09T09:58:27;17.60;99.90
12700;DHT22;6414;49.570;6.060;2022-09-09T10:01:30;17.60;99.90
12700;DHT22;6414;49.570;6.060;2022-09-09T10:04:15;17.80;99.90
12700;DHT22;6414;49.570;6.060;2022-09-09T10:07:09;17.90;99.90
12700;DHT22;6414;49.570;6.060;2022-09-09T10:09:45;18.00;99.90
12700;DHT22;6414;49.570;6.060;2022-09-09T10:12:34;18.10;99.90
12700;DHT22;6414;49.570;6.060;2022-09-09T10:15:33;18.20;99.90
12700;DHT22;6414;49.570;6.060;2022-09-09T10:18:20;18.30;99.90
12700;DHT22;6414;49.570;6.060;2022-09-09T10:21:32;18.00;99.90
12700;DHT22;6414;49.570;6.060;2022-09-09T10:24:31;17.90;99.90
12700;DHT22;6414;49.570;6.060;2022-09-09T10:27:36;18.30;99.90
12700;DHT22;6414;49.570;6.060;2022-09-09T10:30:41;18.90;99.90
12700;DHT22;6414;49.570;6.060;2022-09-09T10:33:50;19.20;99.90
12700;DHT22;6414;49.570;6.060;2022-09-09T10:42:12;19.00;99.90
12700;DHT22;6414;49.570;6.060;2022-09-09T10:45:07;19.00;99.90
12700;DHT22;6414;49.570;6.060;2022-09-09T10:48:41;19.20;99.90
12700;DHT22;6414;49.570;6.060;2022-09-09T10:53:50;19.10;99.90
12700;DHT22;6414;49.570;6.060;2022-09-09T10:56:31;19.00;99.90
12700;DHT22;6414;49.570;6.060;2022-09-09T10:59:17;19.40;99.90
12700;DHT22;6414;49.570;6.060;2022-09-09T11:02:26;19.10;99.90
12700;DHT22;6414;49.570;6.060;2022-09-09T11:05:10;18.40;99.90
12700;DHT22;6414;49.570;6.060;2022-09-09T11:07:58;18.30;99.90
12700;DHT22;6414;49.570;6.060;2022-09-09T11:13:44;18.80;99.90
12700;DHT22;6414;49.570;6.060;2022-09-09T11:19:35;18.80;99.90
12700;DHT22;6414;49.570;6.060;2022-09-09T11:25:26;18.60;99.90
12700;DHT22;6414;49.570;6.060;2022-09-09T11:31:04;18.90;99.90
12700;DHT22;6414;49.570;6.060;2022-09-09T11:34:07;18.90;99.90
12700;DHT22;6414;49.570;6.060;2022-09-09T11:40:09;19.00;99.90
12700;DHT22;6414;49.570;6.060;2022-09-09T11:43:09;19.00;99.90
12700;DHT22;6414;49.570;6.060;2022-09-09T11:45:54;19.10;99.90
12700;DHT22;6414;49.570;6.060;2022-09-09T11:48:42;18.70;99.90
12700;DHT22;6414;49.570;6.060;2022-09-09T11:51:28;18.40;99.90
12700;DHT22;6414;49.570;6.060;2022-09-09T11:54:31;19.10;99.90
12700;DHT22;6414;49.570;6.060;2022-09-09T11:57:26;19.40;99.90
12700;DHT22;6414;49.570;6.060;2022-09-09T12:00:27;19.40;99.90
12700;DHT22;6414;49.570;6.060;2022-09-09T12:02:55;19.20;99.90
12700;DHT22;6414;49.570;6.060;2022-09-09T12:05:42;19.30;99.90
12700;DHT22;6414;49.570;6.060;2022-09-09T12:08:29;19.60;99.90
12700;DHT22;6414;49.570;6.060;2022-09-09T12:11:23;19.70;99.90
12700;DHT22;6414;49.570;6.060;2022-09-09T12:14:00;19.20;99.90
12700;DHT22;6414;49.570;6.060;2022-09-09T12:16:48;19.30;99.90
12700;DHT22;6414;49.570;6.060;2022-09-09T12:19:33;19.50;99.90
12700;DHT22;6414;49.570;6.060;2022-09-09T12:22:34;19.80;99.90
12700;DHT22;6414;49.570;6.060;2022-09-09T12:34:22;19.40;99.90
12700;DHT22;6414;49.570;6.060;2022-09-09T12:37:17;19.30;99.90
12700;DHT22;6414;49.570;6.060;2022-09-09T12:39:58;19.10;99.90
12700;DHT22;6414;49.570;6.060;2022-09-09T12:42:43;19.10;99.90
12700;DHT22;6414;49.570;6.060;2022-09-09T12:45:31;19.10;99.90
12700;DHT22;6414;49.570;6.060;2022-09-09T12:48:17;19.30;99.90
12700;DHT22;6414;49.570;6.060;2022-09-09T12:51:02;19.50;99.90
12700;DHT22;6414;49.570;6.060;2022-09-09T12:53:48;19.70;99.90
12700;DHT22;6414;49.570;6.060;2022-09-09T12:56:34;20.20;99.90
12700;DHT22;6414;49.570;6.060;2022-09-09T12:59:24;20.10;99.90
12700;DHT22;6414;49.570;6.060;2022-09-09T13:02:16;20.40;99.90
12700;DHT22;6414;49.570;6.060;2022-09-09T13:05:05;20.20;99.90
12700;DHT22;6414;49.570;6.060;2022-09-09T13:07:42;20.00;99.90
12700;DHT22;6414;49.570;6.060;2022-09-09T13:10:28;19.40;99.90
12700;DHT22;6414;49.570;6.060;2022-09-09T13:13:13;19.00;99.90
12700;DHT22;6414;49.570;6.060;2022-09-09T13:16:02;18.70;99.90
12700;DHT22;6414;49.570;6.060;2022-09-09T13:18:47;18.10;99.90
12700;DHT22;6414;49.570;6.060;2022-09-09T13:21:35;15.80;99.90
12700;DHT22;6414;49.570;6.060;2022-09-09T13:24:33;14.80;99.90
12700;DHT22;6414;49.570;6.060;2022-09-09T13:27:32;14.60;99.90
12700;DHT22;6414;49.570;6.060;2022-09-09T13:36:08;14.60;99.90
12700;DHT22;6414;49.570;6.060;2022-09-09T13:38:54;14.50;99.90
12700;DHT22;6414;49.570;6.060;2022-09-09T13:41:45;14.40;99.90
12700;DHT22;6414;49.570;6.060;2022-09-09T13:44:32;14.40;99.90
12700;DHT22;6414;49.570;6.060;2022-09-09T13:47:20;14.40;99.90
12700;DHT22;6414;49.570;6.060;2022-09-09T13:50:21;14.40;99.90
12700;DHT22;6414;49.570;6.060;2022-09-09T13:53:06;14.40;99.90
12700;DHT22;6414;49.570;6.060;2022-09-09T13:55:51;14.50;99.90
12700;DHT22;6414;49.570;6.060;2022-09-09T13:58:36;14.60;99.90
12700;DHT22;6414;49.570;6.060;2022-09-09T14:01:22;14.60;99.90
12700;DHT22;6414;49.570;6.060;2022-09-09T14:04:07;14.70;99.90
12700;DHT22;6414;49.570;6.060;2022-09-09T14:06:52;14.80;99.90
12700;DHT22;6414;49.570;6.060;2022-09-09T14:09:38;15.10;99.90
12700;DHT22;6414;49.570;6.060;2022-09-09T14:12:23;15.10;99.90
12700;DHT22;6414;49.570;6.060;2022-09-09T14:15:09;15.20;99.90
12700;DHT22;6414;49.570;6.060;2022-09-09T14:17:53;15.50;99.90
12700;DHT22;6414;49.570;6.060;2022-09-09T14:20:39;15.80;99.90
12700;DHT22;6414;49.570;6.060;2022-09-09T14:23:25;15.80;99.90
12700;DHT22;6414;49.570;6.060;2022-09-09T14:26:10;16.10;99.90
12700;DHT22;6414;49.570;6.060;2022-09-09T14:28:55;16.20;99.90
12700;DHT22;6414;49.570;6.060;2022-09-09T14:31:40;16.50;99.90
12700;DHT22;6414;49.570;6.060;2022-09-09T14:34:26;16.60;99.90
12700;DHT22;6414;49.570;6.060;2022-09-09T14:37:14;16.80;99.90
12700;DHT22;6414;49.570;6.060;2022-09-09T14:39:59;16.80;99.90
12700;DHT22;6414;49.570;6.060;2022-09-09T14:42:45;16.90;99.90
12700;DHT22;6414;49.570;6.060;2022-09-09T14:45:35;17.00;99.90
12700;DHT22;6414;49.570;6.060;2022-09-09T14:48:20;17.20;99.90
12700;DHT22;6414;49.570;6.060;2022-09-09T14:51:08;17.20;99.90
12700;DHT22;6414;49.570;6.060;2022-09-09T14:53:51;17.20;99.90
12700;DHT22;6414;49.570;6.060;2022-09-09T14:56:36;17.10;99.90
12700;DHT22;6414;49.570;6.060;2022-09-09T14:59:22;17.20;99.90
12700;DHT22;6414;49.570;6.060;2022-09-09T15:02:08;17.40;99.90
12700;DHT22;6414;49.570;6.060;2022-09-09T15:04:53;17.50;99.90
12700;DHT22;6414;49.570;6.060;2022-09-09T15:07:38;17.30;99.90
12700;DHT22;6414;49.570;6.060;2022-09-09T15:10:25;17.10;99.90
12700;DHT22;6414;49.570;6.060;2022-09-09T15:13:10;17.10;99.90
12700;DHT22;6414;49.570;6.060;2022-09-09T15:15:56;16.90;99.90
12700;DHT22;6414;49.570;6.060;2022-09-09T15:18:41;16.90;99.90
12700;DHT22;6414;49.570;6.060;2022-09-09T15:21:28;16.90;99.90
12700;DHT22;6414;49.570;6.060;2022-09-09T15:24:12;16.80;99.90
12700;DHT22;6414;49.570;6.060;2022-09-09T15:26:58;16.80;99.90
12700;DHT22;6414;49.570;6.060;2022-09-09T15:29:43;16.80;99.90
12700;DHT22;6414;49.570;6.060;2022-09-09T15:32:29;16.80;99.90
12700;DHT22;6414;49.570;6.060;2022-09-09T15:35:14;16.80;99.90
12700;DHT22;6414;49.570;6.060;2022-09-09T15:38:01;16.80;99.90
12700;DHT22;6414;49.570;6.060;2022-09-09T15:40:45;16.80;99.90
12700;DHT22;6414;49.570;6.060;2022-09-09T15:43:30;16.80;99.90
12700;DHT22;6414;49.570;6.060;2022-09-09T15:46:34;16.70;99.90
12700;DHT22;6414;49.570;6.060;2022-09-09T15:49:23;16.70;99.90
12700;DHT22;6414;49.570;6.060;2022-09-09T15:52:08;16.20;99.90
12700;DHT22;6414;49.570;6.060;2022-09-09T15:54:53;15.80;99.90
12700;DHT22;6414;49.570;6.060;2022-09-09T15:57:38;15.50;99.90
12700;DHT22;6414;49.570;6.060;2022-09-09T16:00:24;15.30;99.90
12700;DHT22;6414;49.570;6.060;2022-09-09T16:03:10;15.30;99.90
12700;DHT22;6414;49.570;6.060;2022-09-09T16:05:56;15.40;99.90
12700;DHT22;6414;49.570;6.060;2022-09-09T16:08:42;15.40;99.90
12700;DHT22;6414;49.570;6.060;2022-09-09T16:11:28;15.30;99.90
12700;DHT22;6414;49.570;6.060;2022-09-09T16:14:12;15.30;99.90
12700;DHT22;6414;49.570;6.060;2022-09-09T16:16:57;15.30;99.90
12700;DHT22;6414;49.570;6.060;2022-09-09T16:19:43;15.50;99.90
12700;DHT22;6414;49.570;6.060;2022-09-09T16:22:28;15.40;99.90
12700;DHT22;6414;49.570;6.060;2022-09-09T16:25:13;15.40;99.90
12700;DHT22;6414;49.570;6.060;2022-09-09T16:27:59;15.30;99.90
12700;DHT22;6414;49.570;6.060;2022-09-09T16:30:44;15.30;99.90
12700;DHT22;6414;49.570;6.060;2022-09-09T16:33:30;15.10;99.90
12700;DHT22;6414;49.570;6.060;2022-09-09T16:36:16;15.10;99.90
12700;DHT22;6414;49.570;6.060;2022-09-09T16:39:02;15.00;99.90
12700;DHT22;6414;49.570;6.060;2022-09-09T16:41:46;15.10;99.90
12700;DHT22;6414;49.570;6.060;2022-09-09T16:44:31;15.20;99.90
12700;DHT22;6414;49.570;6.060;2022-09-09T16:47:17;15.20;99.90
12700;DHT22;6414;49.570;6.060;2022-09-09T16:50:02;15.30;99.90
12700;DHT22;6414;49.570;6.060;2022-09-09T16:52:48;15.30;99.90
12700;DHT22;6414;49.570;6.060;2022-09-09T16:55:33;15.30;99.90
12700;DHT22;6414;49.570;6.060;2022-09-09T16:58:19;15.40;99.90
12700;DHT22;6414;49.570;6.060;2022-09-09T17:01:05;15.40;99.90
12700;DHT22;6414;49.570;6.060;2022-09-09T17:03:53;15.40;99.90
12700;DHT22;6414;49.570;6.060;2022-09-09T17:06:39;15.40;99.90
12700;DHT22;6414;49.570;6.060;2022-09-09T17:09:25;15.40;99.90
12700;DHT22;6414;49.570;6.060;2022-09-09T17:12:10;15.30;99.90
12700;DHT22;6414;49.570;6.060;2022-09-09T17:14:56;15.20;99.90
12700;DHT22;6414;49.570;6.060;2022-09-09T17:17:42;15.10;99.90
12700;DHT22;6414;49.570;6.060;2022-09-09T17:20:27;15.10;99.90
12700;DHT22;6414;49.570;6.060;2022-09-09T17:23:13;15.00;99.90
12700;DHT22;6414;49.570;6.060;2022-09-09T17:25:59;15.00;99.90
12700;DHT22;6414;49.570;6.060;2022-09-09T17:28:44;14.90;99.90
12700;DHT22;6414;49.570;6.060;2022-09-09T17:31:30;14.80;99.90
12700;DHT22;6414;49.570;6.060;2022-09-09T17:34:15;14.90;99.90
12700;DHT22;6414;49.570;6.060;2022-09-09T17:37:00;14.80;99.90
12700;DHT22;6414;49.570;6.060;2022-09-09T17:39:46;14.80;99.90
12700;DHT22;6414;49.570;6.060;2022-09-09T17:42:31;14.70;99.90
12700;DHT22;6414;49.570;6.060;2022-09-09T17:45:17;14.70;99.90
12700;DHT22;6414;49.570;6.060;2022-09-09T17:48:03;14.70;99.90
12700;DHT22;6414;49.570;6.060;2022-09-09T17:50:56;14.70;99.90
12700;DHT22;6414;49.570;6.060;2022-09-09T17:53:38;14.60;99.90
12700;DHT22;6414;49.570;6.060;2022-09-09T17:56:24;14.60;99.90
12700;DHT22;6414;49.570;6.060;2022-09-09T17:59:09;14.60;99.90
12700;DHT22;6414;49.570;6.060;2022-09-09T18:01:54;14.50;99.90
12700;DHT22;6414;49.570;6.060;2022-09-09T18:04:39;14.50;99.90
12700;DHT22;6414;49.570;6.060;2022-09-09T18:07:24;14.50;99.90
12700;DHT22;6414;49.570;6.060;2022-09-09T18:10:10;14.50;99.90
12700;DHT22;6414;49.570;6.060;2022-09-09T18:12:56;14.50;99.90
12700;DHT22;6414;49.570;6.060;2022-09-09T18:15:41;14.40;99.90
12700;DHT22;6414;49.570;6.060;2022-09-09T18:18:27;14.40;99.90
12700;DHT22;6414;49.570;6.060;2022-09-09T18:21:12;14.40;99.90
12700;DHT22;6414;49.570;6.060;2022-09-09T18:24:01;14.40;99.90
12700;DHT22;6414;49.570;6.060;2022-09-09T18:26:48;14.40;99.90
12700;DHT22;6414;49.570;6.060;2022-09-09T18:29:34;14.40;99.90
12700;DHT22;6414;49.570;6.060;2022-09-09T18:32:20;14.30;99.90
12700;DHT22;6414;49.570;6.060;2022-09-09T18:35:06;14.40;99.90
12700;DHT22;6414;49.570;6.060;2022-09-09T18:37:51;14.30;99.90
12700;DHT22;6414;49.570;6.060;2022-09-09T18:40:36;14.30;99.90
12700;DHT22;6414;49.570;6.060;2022-09-09T18:43:23;14.40;99.90
12700;DHT22;6414;49.570;6.060;2022-09-09T18:46:08;14.40;99.90
12700;DHT22;6414;49.570;6.060;2022-09-09T18:48:53;14.40;99.90
12700;DHT22;6414;49.570;6.060;2022-09-09T18:51:39;14.40;99.90
12700;DHT22;6414;49.570;6.060;2022-09-09T18:54:25;14.40;99.90
12700;DHT22;6414;49.570;6.060;2022-09-09T18:57:13;14.40;99.90
12700;DHT22;6414;49.570;6.060;2022-09-09T18:59:59;14.40;99.90
12700;DHT22;6414;49.570;6.060;2022-09-09T19:02:47;14.40;99.90
12700;DHT22;6414;49.570;6.060;2022-09-09T19:05:29;14.40;99.90